sensor_id;sensor_type;location;lat;lon;timestamp;temperature;humidity
13796;SHT30;40911;51.552;9.874;2023-10-19T00:00:06;7.92;92.76
13796;SHT30;40911;51.552;9.874;2023-10-19T00:02:40;7.95;92.93
13796;SHT30;40911;51.552;9.874;2023-10-19T00:05:01;7.89;93.20
13796;SHT30;40911;51.552;9.874;2023-10-19T00:07:23;7.90;93.24
13796;SHT30;40911;51.552;9.874;2023-10-19T00:09:44;7.85;93.44
13796;SHT30;40911;51.552;9.874;2023-10-19T00:12:13;7.85;93.74
13796;SHT30;40911;51.552;9.874;2023-10-19T00:14:36;7.79;93.91
13796;SHT30;40911;51.552;9.874;2023-10-19T00:16:59;7.83;93.83
13796;SHT30;40911;51.552;9.874;2023-10-19T00:19:26;7.75;94.34
13796;SHT30;40911;51.552;9.874;2023-10-19T00:21:48;7.78;94.51
13796;SHT30;40911;51.552;9.874;2023-10-19T00:24:10;7.72;94.65
13796;SHT30;40911;51.552;9.874;2023-10-19T00:26:37;7.75;94.54
13796;SHT30;40911;51.552;9.874;2023-10-19T00:28:58;7.70;94.39
13796;SHT30;40911;51.552;9.874;2023-10-19T00:31:26;7.63;94.44
13796;SHT30;40911;51.552;9.874;2023-10-19T00:33:49;7.65;94.92
13796;SHT30;40911;51.552;9.874;2023-10-19T00:36:12;7.56;94.88
13796;SHT30;40911;51.552;9.874;2023-10-19T00:38:34;7.65;94.81
13796;SHT30;40911;51.552;9.874;2023-10-19T00:41:09;7.62;95.17
13796;SHT30;40911;51.552;9.874;2023-10-19T00:43:41;7.62;95.48
13796;SHT30;40911;51.552;9.874;2023-10-19T00:46:04;7.55;95.52
13796;SHT30;40911;51.552;9.874;2023-10-19T00:48:31;7.61;95.16
13796;SHT30;40911;51.552;9.874;2023-10-19T00:50:56;7.56;95.64
13796;SHT30;40911;51.552;9.874;2023-10-19T00:53:27;7.61;95.57
13796;SHT30;40911;51.552;9.874;2023-10-19T00:55:50;7.58;95.43
13796;SHT30;40911;51.552;9.874;2023-10-19T00:58:12;7.69;95.31
13796;SHT30;40911;51.552;9.874;2023-10-19T01:00:38;7.56;95.38
13796;SHT30;40911;51.552;9.874;2023-10-19T01:03:05;7.61;95.45
13796;SHT30;40911;51.552;9.874;2023-10-19T01:05:30;7.52;95.67
13796;SHT30;40911;51.552;9.874;2023-10-19T01:07:57;7.58;95.95
13796;SHT30;40911;51.552;9.874;2023-10-19T01:10:23;7.48;95.99
13796;SHT30;40911;51.552;9.874;2023-10-19T01:12:45;7.48;96.09
13796;SHT30;40911;51.552;9.874;2023-10-19T01:15:08;7.44;96.08
13796;SHT30;40911;51.552;9.874;2023-10-19T01:17:37;7.45;97.13
13796;SHT30;40911;51.552;9.874;2023-10-19T01:20:08;7.38;96.46
13796;SHT30;40911;51.552;9.874;2023-10-19T01:22:44;7.44;96.29
13796;SHT30;40911;51.552;9.874;2023-10-19T01:25:07;7.45;96.36
13796;SHT30;40911;51.552;9.874;2023-10-19T01:27:31;7.42;96.40
13796;SHT30;40911;51.552;9.874;2023-10-19T01:29:53;7.31;96.31
13796;SHT30;40911;51.552;9.874;2023-10-19T01:32:20;7.44;96.32
13796;SHT30;40911;51.552;9.874;2023-10-19T01:34:43;7.41;96.45
13796;SHT30;40911;51.552;9.874;2023-10-19T01:37:05;7.38;96.53
13796;SHT30;40911;51.552;9.874;2023-10-19T01:39:27;7.38;96.56
13796;SHT30;40911;51.552;9.874;2023-10-19T01:41:49;7.35;96.69
13796;SHT30;40911;51.552;9.874;2023-10-19T01:44:11;7.37;96.71
13796;SHT30;40911;51.552;9.874;2023-10-19T01:46:35;7.35;96.78
13796;SHT30;40911;51.552;9.874;2023-10-19T01:48:57;7.38;96.79
13796;SHT30;40911;51.552;9.874;2023-10-19T01:51:18;7.28;97.02
13796;SHT30;40911;51.552;9.874;2023-10-19T01:53:39;7.35;97.18
13796;SHT30;40911;51.552;9.874;2023-10-19T01:56:05;7.27;97.38
13796;SHT30;40911;51.552;9.874;2023-10-19T01:58:29;7.30;97.46
13796;SHT30;40911;51.552;9.874;2023-10-19T02:00:51;7.30;97.37
13796;SHT30;40911;51.552;9.874;2023-10-19T02:03:16;7.28;99.97
13796;SHT30;40911;51.552;9.874;2023-10-19T02:05:38;7.26;99.74
13796;SHT30;40911;51.552;9.874;2023-10-19T02:08:02;7.24;98.95
13796;SHT30;40911;51.552;9.874;2023-10-19T02:10:24;7.20;98.93
13796;SHT30;40911;51.552;9.874;2023-10-19T02:12:49;7.23;98.93
13796;SHT30;40911;51.552;9.874;2023-10-19T02:15:15;7.21;98.90
13796;SHT30;40911;51.552;9.874;2023-10-19T02:17:36;7.18;98.79
13796;SHT30;40911;51.552;9.874;2023-10-19T02:20:00;7.17;98.68
13796;SHT30;40911;51.552;9.874;2023-10-19T02:22:21;7.18;98.66
13796;SHT30;40911;51.552;9.874;2023-10-19T02:24:44;7.23;98.68
13796;SHT30;40911;51.552;9.874;2023-10-19T02:27:04;7.20;98.67
13796;SHT30;40911;51.552;9.874;2023-10-19T02:29:28;7.24;98.69
13796;SHT30;40911;51.552;9.874;2023-10-19T02:31:49;7.24;98.66
13796;SHT30;40911;51.552;9.874;2023-10-19T02:34:12;7.23;98.67
13796;SHT30;40911;51.552;9.874;2023-10-19T02:36:35;7.26;98.84
13796;SHT30;40911;51.552;9.874;2023-10-19T02:38:58;7.28;98.71
13796;SHT30;40911;51.552;9.874;2023-10-19T02:41:19;7.27;98.62
13796;SHT30;40911;51.552;9.874;2023-10-19T02:43:41;7.21;98.28
13796;SHT30;40911;51.552;9.874;2023-10-19T02:46:07;7.24;97.87
13796;SHT30;40911;51.552;9.874;2023-10-19T02:48:31;7.26;97.61
13796;SHT30;40911;51.552;9.874;2023-10-19T02:50:52;7.26;97.67
13796;SHT30;40911;51.552;9.874;2023-10-19T02:53:14;7.27;97.63
13796;SHT30;40911;51.552;9.874;2023-10-19T02:55:39;7.31;97.61
13796;SHT30;40911;51.552;9.874;2023-10-19T02:58:00;7.34;97.62
13796;SHT30;40911;51.552;9.874;2023-10-19T03:00:25;7.34;97.52
13796;SHT30;40911;51.552;9.874;2023-10-19T03:02:54;7.37;97.55
13796;SHT30;40911;51.552;9.874;2023-10-19T03:05:16;7.35;97.55
13796;SHT30;40911;51.552;9.874;2023-10-19T03:07:37;7.42;97.55
13796;SHT30;40911;51.552;9.874;2023-10-19T03:10:00;7.39;97.50
13796;SHT30;40911;51.552;9.874;2023-10-19T03:12:22;7.47;97.44
13796;SHT30;40911;51.552;9.874;2023-10-19T03:14:46;7.42;97.41
13796;SHT30;40911;51.552;9.874;2023-10-19T03:17:08;7.48;97.42
13796;SHT30;40911;51.552;9.874;2023-10-19T03:19:32;7.48;97.46
13796;SHT30;40911;51.552;9.874;2023-10-19T03:21:53;7.47;97.33
13796;SHT30;40911;51.552;9.874;2023-10-19T03:24:20;7.48;97.50
13796;SHT30;40911;51.552;9.874;2023-10-19T03:26:55;7.52;97.52
13796;SHT30;40911;51.552;9.874;2023-10-19T03:29:20;7.48;97.38
13796;SHT30;40911;51.552;9.874;2023-10-19T03:31:46;7.49;97.43
13796;SHT30;40911;51.552;9.874;2023-10-19T03:34:07;7.49;97.47
13796;SHT30;40911;51.552;9.874;2023-10-19T03:36:31;7.51;97.52
13796;SHT30;40911;51.552;9.874;2023-10-19T03:38:54;7.56;97.53
13796;SHT30;40911;51.552;9.874;2023-10-19T03:41:17;7.58;97.62
13796;SHT30;40911;51.552;9.874;2023-10-19T03:43:41;7.59;97.40
13796;SHT30;40911;51.552;9.874;2023-10-19T03:46:04;7.62;97.29
13796;SHT30;40911;51.552;9.874;2023-10-19T03:48:35;7.61;97.27
13796;SHT30;40911;51.552;9.874;2023-10-19T03:50:59;7.58;97.47
13796;SHT30;40911;51.552;9.874;2023-10-19T03:53:24;7.61;97.49
13796;SHT30;40911;51.552;9.874;2023-10-19T03:55:46;7.61;97.55
13796;SHT30;40911;51.552;9.874;2023-10-19T03:58:08;7.63;97.58
13796;SHT30;40911;51.552;9.874;2023-10-19T04:00:32;7.68;97.44
13796;SHT30;40911;51.552;9.874;2023-10-19T04:02:55;7.69;97.56
13796;SHT30;40911;51.552;9.874;2023-10-19T04:05:18;7.69;97.37
13796;SHT30;40911;51.552;9.874;2023-10-19T04:07:42;7.69;97.62
13796;SHT30;40911;51.552;9.874;2023-10-19T04:10:06;7.66;97.61
13796;SHT30;40911;51.552;9.874;2023-10-19T04:12:44;7.74;97.51
13796;SHT30;40911;51.552;9.874;2023-10-19T04:15:07;7.74;97.70
13796;SHT30;40911;51.552;9.874;2023-10-19T04:17:33;7.70;97.67
13796;SHT30;40911;51.552;9.874;2023-10-19T04:19:56;7.78;97.58
13796;SHT30;40911;51.552;9.874;2023-10-19T04:22:18;7.78;97.67
13796;SHT30;40911;51.552;9.874;2023-10-19T04:24:43;7.76;97.66
13796;SHT30;40911;51.552;9.874;2023-10-19T04:27:06;7.75;97.73
13796;SHT30;40911;51.552;9.874;2023-10-19T04:29:29;7.81;97.67
13796;SHT30;40911;51.552;9.874;2023-10-19T04:31:51;7.85;97.73
13796;SHT30;40911;51.552;9.874;2023-10-19T04:34:15;7.81;97.61
13796;SHT30;40911;51.552;9.874;2023-10-19T04:36:40;7.86;97.67
13796;SHT30;40911;51.552;9.874;2023-10-19T04:39:03;7.90;97.80
13796;SHT30;40911;51.552;9.874;2023-10-19T04:41:25;7.93;97.83
13796;SHT30;40911;51.552;9.874;2023-10-19T04:43:50;7.89;97.79
13796;SHT30;40911;51.552;9.874;2023-10-19T04:46:12;7.90;97.85
13796;SHT30;40911;51.552;9.874;2023-10-19T04:48:33;7.92;97.96
13796;SHT30;40911;51.552;9.874;2023-10-19T04:50:55;7.90;97.98
13796;SHT30;40911;51.552;9.874;2023-10-19T04:53:17;7.93;97.95
13796;SHT30;40911;51.552;9.874;2023-10-19T04:55:39;7.95;98.02
13796;SHT30;40911;51.552;9.874;2023-10-19T04:58:01;7.93;97.92
13796;SHT30;40911;51.552;9.874;2023-10-19T05:00:24;7.99;97.98
13796;SHT30;40911;51.552;9.874;2023-10-19T05:02:48;8.00;98.08
13796;SHT30;40911;51.552;9.874;2023-10-19T05:05:12;8.03;98.02
13796;SHT30;40911;51.552;9.874;2023-10-19T05:07:37;7.97;97.99
13796;SHT30;40911;51.552;9.874;2023-10-19T05:09:59;7.97;97.98
13796;SHT30;40911;51.552;9.874;2023-10-19T05:12:21;8.02;98.03
13796;SHT30;40911;51.552;9.874;2023-10-19T05:14:43;8.03;98.14
13796;SHT30;40911;51.552;9.874;2023-10-19T05:17:08;8.06;98.16
13796;SHT30;40911;51.552;9.874;2023-10-19T05:19:30;8.06;98.16
13796;SHT30;40911;51.552;9.874;2023-10-19T05:21:52;8.06;98.23
13796;SHT30;40911;51.552;9.874;2023-10-19T05:24:14;8.04;98.15
13796;SHT30;40911;51.552;9.874;2023-10-19T05:26:36;8.12;98.28
13796;SHT30;40911;51.552;9.874;2023-10-19T05:28:57;8.10;98.21
13796;SHT30;40911;51.552;9.874;2023-10-19T05:31:19;8.09;98.15
13796;SHT30;40911;51.552;9.874;2023-10-19T05:33:42;8.13;98.13
13796;SHT30;40911;51.552;9.874;2023-10-19T05:36:04;8.14;98.11
13796;SHT30;40911;51.552;9.874;2023-10-19T05:38:26;8.17;98.24
13796;SHT30;40911;51.552;9.874;2023-10-19T05:40:48;8.18;98.29
13796;SHT30;40911;51.552;9.874;2023-10-19T05:43:12;8.14;98.24
13796;SHT30;40911;51.552;9.874;2023-10-19T05:45:34;8.23;98.34
13796;SHT30;40911;51.552;9.874;2023-10-19T05:47:56;8.21;98.27
13796;SHT30;40911;51.552;9.874;2023-10-19T05:50:20;8.24;98.22
13796;SHT30;40911;51.552;9.874;2023-10-19T05:52:42;8.25;98.24
13796;SHT30;40911;51.552;9.874;2023-10-19T05:55:05;8.24;98.25
13796;SHT30;40911;51.552;9.874;2023-10-19T05:57:27;8.27;98.27
13796;SHT30;40911;51.552;9.874;2023-10-19T05:59:49;8.24;98.33
13796;SHT30;40911;51.552;9.874;2023-10-19T06:02:10;8.27;98.26
13796;SHT30;40911;51.552;9.874;2023-10-19T06:04:32;8.31;98.30
13796;SHT30;40911;51.552;9.874;2023-10-19T06:06:55;8.37;98.40
13796;SHT30;40911;51.552;9.874;2023-10-19T06:09:17;8.38;98.36
13796;SHT30;40911;51.552;9.874;2023-10-19T06:11:39;8.40;98.36
13796;SHT30;40911;51.552;9.874;2023-10-19T06:14:03;8.41;98.37
13796;SHT30;40911;51.552;9.874;2023-10-19T06:16:27;8.46;98.45
13796;SHT30;40911;51.552;9.874;2023-10-19T06:18:49;8.46;98.43
13796;SHT30;40911;51.552;9.874;2023-10-19T06:21:11;8.55;98.45
13796;SHT30;40911;51.552;9.874;2023-10-19T06:23:35;8.58;98.51
13796;SHT30;40911;51.552;9.874;2023-10-19T06:25:57;8.62;98.43
13796;SHT30;40911;51.552;9.874;2023-10-19T06:28:20;8.65;98.44
13796;SHT30;40911;51.552;9.874;2023-10-19T06:30:42;8.71;98.45
13796;SHT30;40911;51.552;9.874;2023-10-19T06:33:04;8.73;98.34
13796;SHT30;40911;51.552;9.874;2023-10-19T06:35:27;8.80;98.39
13796;SHT30;40911;51.552;9.874;2023-10-19T06:37:49;8.83;98.34
13796;SHT30;40911;51.552;9.874;2023-10-19T06:40:14;8.85;98.44
13796;SHT30;40911;51.552;9.874;2023-10-19T06:42:37;8.89;98.43
13796;SHT30;40911;51.552;9.874;2023-10-19T06:44:58;8.88;98.37
13796;SHT30;40911;51.552;9.874;2023-10-19T06:47:20;8.95;98.42
13796;SHT30;40911;51.552;9.874;2023-10-19T06:49:42;8.96;98.42
13796;SHT30;40911;51.552;9.874;2023-10-19T06:52:04;9.02;98.48
13796;SHT30;40911;51.552;9.874;2023-10-19T06:54:26;9.03;98.53
13796;SHT30;40911;51.552;9.874;2023-10-19T06:56:51;9.04;98.49
13796;SHT30;40911;51.552;9.874;2023-10-19T06:59:12;9.09;98.55
13796;SHT30;40911;51.552;9.874;2023-10-19T07:01:34;9.13;98.56
13796;SHT30;40911;51.552;9.874;2023-10-19T07:03:56;9.11;98.49
13796;SHT30;40911;51.552;9.874;2023-10-19T07:06:18;9.19;98.47
13796;SHT30;40911;51.552;9.874;2023-10-19T07:08:42;9.21;98.46
13796;SHT30;40911;51.552;9.874;2023-10-19T07:11:04;9.28;98.50
13796;SHT30;40911;51.552;9.874;2023-10-19T07:13:27;9.31;98.47
13796;SHT30;40911;51.552;9.874;2023-10-19T07:15:53;9.38;98.49
13796;SHT30;40911;51.552;9.874;2023-10-19T07:18:15;9.42;98.50
13796;SHT30;40911;51.552;9.874;2023-10-19T07:20:36;9.47;98.50
13796;SHT30;40911;51.552;9.874;2023-10-19T07:22:59;9.54;98.45
13796;SHT30;40911;51.552;9.874;2023-10-19T07:25:24;9.54;98.44
13796;SHT30;40911;51.552;9.874;2023-10-19T07:27:47;9.57;98.45
13796;SHT30;40911;51.552;9.874;2023-10-19T07:30:11;9.62;98.44
13796;SHT30;40911;51.552;9.874;2023-10-19T07:32:35;9.68;98.43
13796;SHT30;40911;51.552;9.874;2023-10-19T07:34:59;9.70;98.41
13796;SHT30;40911;51.552;9.874;2023-10-19T07:37:21;9.73;98.41
13796;SHT30;40911;51.552;9.874;2023-10-19T07:39:44;9.81;98.45
13796;SHT30;40911;51.552;9.874;2023-10-19T07:42:06;9.79;98.35
13796;SHT30;40911;51.552;9.874;2023-10-19T07:44:28;9.88;98.42
13796;SHT30;40911;51.552;9.874;2023-10-19T07:46:52;9.90;98.43
13796;SHT30;40911;51.552;9.874;2023-10-19T07:49:14;9.93;98.43
13796;SHT30;40911;51.552;9.874;2023-10-19T07:51:36;10.00;98.39
13796;SHT30;40911;51.552;9.874;2023-10-19T07:53:57;10.00;98.44
13796;SHT30;40911;51.552;9.874;2023-10-19T07:56:19;10.05;98.38
13796;SHT30;40911;51.552;9.874;2023-10-19T07:58:41;10.12;98.33
13796;SHT30;40911;51.552;9.874;2023-10-19T08:01:03;10.17;98.38
13796;SHT30;40911;51.552;9.874;2023-10-19T08:03:27;10.24;98.36
13796;SHT30;40911;51.552;9.874;2023-10-19T08:05:49;10.26;98.25
13796;SHT30;40911;51.552;9.874;2023-10-19T08:08:11;10.34;98.24
13796;SHT30;40911;51.552;9.874;2023-10-19T08:10:33;10.44;98.16
13796;SHT30;40911;51.552;9.874;2023-10-19T08:12:55;10.51;98.26
13796;SHT30;40911;51.552;9.874;2023-10-19T08:15:17;10.51;98.21
13796;SHT30;40911;51.552;9.874;2023-10-19T08:17:41;10.49;98.16
13796;SHT30;40911;51.552;9.874;2023-10-19T08:20:06;10.60;98.17
13796;SHT30;40911;51.552;9.874;2023-10-19T08:22:29;10.61;98.10
13796;SHT30;40911;51.552;9.874;2023-10-19T08:24:51;10.68;98.02
13796;SHT30;40911;51.552;9.874;2023-10-19T08:27:15;10.72;98.02
13796;SHT30;40911;51.552;9.874;2023-10-19T08:29:37;10.71;97.86
13796;SHT30;40911;51.552;9.874;2023-10-19T08:31:59;10.75;97.91
13796;SHT30;40911;51.552;9.874;2023-10-19T08:34:21;10.75;97.87
13796;SHT30;40911;51.552;9.874;2023-10-19T08:36:46;10.75;97.90
13796;SHT30;40911;51.552;9.874;2023-10-19T08:39:10;10.82;97.93
13796;SHT30;40911;51.552;9.874;2023-10-19T08:41:34;10.85;97.95
13796;SHT30;40911;51.552;9.874;2023-10-19T08:43:57;10.81;97.91
13796;SHT30;40911;51.552;9.874;2023-10-19T08:46:20;10.92;97.92
13796;SHT30;40911;51.552;9.874;2023-10-19T08:48:41;10.97;97.85
13796;SHT30;40911;51.552;9.874;2023-10-19T08:51:09;11.02;97.85
13796;SHT30;40911;51.552;9.874;2023-10-19T08:53:33;11.07;97.88
13796;SHT30;40911;51.552;9.874;2023-10-19T08:55:59;11.10;97.90
13796;SHT30;40911;51.552;9.874;2023-10-19T08:58:24;11.07;97.80
13796;SHT30;40911;51.552;9.874;2023-10-19T09:00:49;11.13;97.94
13796;SHT30;40911;51.552;9.874;2023-10-19T09:03:14;11.13;97.94
13796;SHT30;40911;51.552;9.874;2023-10-19T09:05:38;11.12;97.92
13796;SHT30;40911;51.552;9.874;2023-10-19T09:08:00;11.16;97.87
13796;SHT30;40911;51.552;9.874;2023-10-19T09:10:28;11.19;97.94
13796;SHT30;40911;51.552;9.874;2023-10-19T09:12:59;11.20;97.94
13796;SHT30;40911;51.552;9.874;2023-10-19T09:15:22;11.20;98.14
13796;SHT30;40911;51.552;9.874;2023-10-19T09:17:46;11.20;98.08
13796;SHT30;40911;51.552;9.874;2023-10-19T09:20:11;11.24;98.14
13796;SHT30;40911;51.552;9.874;2023-10-19T09:22:35;11.24;98.10
13796;SHT30;40911;51.552;9.874;2023-10-19T09:25:05;11.30;98.24
13796;SHT30;40911;51.552;9.874;2023-10-19T09:27:29;11.28;98.22
13796;SHT30;40911;51.552;9.874;2023-10-19T09:29:51;11.28;98.22
13796;SHT30;40911;51.552;9.874;2023-10-19T09:32:13;11.28;98.30
13796;SHT30;40911;51.552;9.874;2023-10-19T09:34:36;11.33;98.42
13796;SHT30;40911;51.552;9.874;2023-10-19T09:36:58;11.36;98.46
13796;SHT30;40911;51.552;9.874;2023-10-19T09:39:21;11.39;98.58
13796;SHT30;40911;51.552;9.874;2023-10-19T09:41:44;11.37;98.56
13796;SHT30;40911;51.552;9.874;2023-10-19T09:44:09;11.33;98.47
13796;SHT30;40911;51.552;9.874;2023-10-19T09:46:34;11.33;98.43
13796;SHT30;40911;51.552;9.874;2023-10-19T09:48:59;11.39;98.41
13796;SHT30;40911;51.552;9.874;2023-10-19T09:51:22;11.50;98.39
13796;SHT30;40911;51.552;9.874;2023-10-19T09:53:49;11.57;98.35
13796;SHT30;40911;51.552;9.874;2023-10-19T09:56:19;11.62;98.30
13796;SHT30;40911;51.552;9.874;2023-10-19T09:58:45;11.57;98.24
13796;SHT30;40911;51.552;9.874;2023-10-19T10:01:10;11.61;98.20
13796;SHT30;40911;51.552;9.874;2023-10-19T10:03:46;11.71;98.20
13796;SHT30;40911;51.552;9.874;2023-10-19T10:06:08;11.68;98.12
13796;SHT30;40911;51.552;9.874;2023-10-19T10:08:31;11.74;98.08
13796;SHT30;40911;51.552;9.874;2023-10-19T10:10:54;11.79;98.02
13796;SHT30;40911;51.552;9.874;2023-10-19T10:15:58;11.83;97.87
13796;SHT30;40911;51.552;9.874;2023-10-19T10:18:24;11.86;97.90
13796;SHT30;40911;51.552;9.874;2023-10-19T10:20:46;11.89;97.94
13796;SHT30;40911;51.552;9.874;2023-10-19T10:23:19;11.88;97.97
13796;SHT30;40911;51.552;9.874;2023-10-19T10:25:45;11.85;97.95
13796;SHT30;40911;51.552;9.874;2023-10-19T10:28:12;11.89;97.97
13796;SHT30;40911;51.552;9.874;2023-10-19T10:30:36;12.00;98.02
13796;SHT30;40911;51.552;9.874;2023-10-19T10:32:57;11.96;97.82
13796;SHT30;40911;51.552;9.874;2023-10-19T10:35:54;12.03;97.88
13796;SHT30;40911;51.552;9.874;2023-10-19T10:38:16;12.08;97.72
13796;SHT30;40911;51.552;9.874;2023-10-19T10:40:41;12.15;97.88
13796;SHT30;40911;51.552;9.874;2023-10-19T10:43:07;12.17;97.79
13796;SHT30;40911;51.552;9.874;2023-10-19T10:45:29;12.19;97.77
13796;SHT30;40911;51.552;9.874;2023-10-19T10:47:51;12.30;97.85
13796;SHT30;40911;51.552;9.874;2023-10-19T10:50:12;12.30;97.59
13796;SHT30;40911;51.552;9.874;2023-10-19T10:52:42;12.36;97.50
13796;SHT30;40911;51.552;9.874;2023-10-19T10:55:07;12.37;97.57
13796;SHT30;40911;51.552;9.874;2023-10-19T10:57:32;12.40;97.59
13796;SHT30;40911;51.552;9.874;2023-10-19T11:00:04;12.43;97.54
13796;SHT30;40911;51.552;9.874;2023-10-19T11:02:27;12.40;97.49
13796;SHT30;40911;51.552;9.874;2023-10-19T11:04:49;12.46;97.63
13796;SHT30;40911;51.552;9.874;2023-10-19T11:07:17;12.51;97.67
13796;SHT30;40911;51.552;9.874;2023-10-19T11:09:45;12.38;97.48
13796;SHT30;40911;51.552;9.874;2023-10-19T11:12:10;12.38;97.52
13796;SHT30;40911;51.552;9.874;2023-10-19T11:14:33;12.47;97.59
13796;SHT30;40911;51.552;9.874;2023-10-19T11:16:55;12.47;97.52
13796;SHT30;40911;51.552;9.874;2023-10-19T11:19:16;12.54;97.40
13796;SHT30;40911;51.552;9.874;2023-10-19T11:21:38;12.65;97.33
13796;SHT30;40911;51.552;9.874;2023-10-19T11:24:24;12.71;97.20
13796;SHT30;40911;51.552;9.874;2023-10-19T11:26:47;12.69;96.90
13796;SHT30;40911;51.552;9.874;2023-10-19T11:29:09;12.69;97.09
13796;SHT30;40911;51.552;9.874;2023-10-19T11:31:38;12.69;97.49
13796;SHT30;40911;51.552;9.874;2023-10-19T11:34:00;12.74;97.22
13796;SHT30;40911;51.552;9.874;2023-10-19T11:36:22;12.74;97.26
13796;SHT30;40911;51.552;9.874;2023-10-19T11:38:46;12.79;97.20
13796;SHT30;40911;51.552;9.874;2023-10-19T11:41:08;12.74;97.06
13796;SHT30;40911;51.552;9.874;2023-10-19T11:43:31;12.76;96.98
13796;SHT30;40911;51.552;9.874;2023-10-19T11:45:54;12.84;97.10
13796;SHT30;40911;51.552;9.874;2023-10-19T11:48:17;12.81;97.10
13796;SHT30;40911;51.552;9.874;2023-10-19T11:50:39;12.84;96.98
13796;SHT30;40911;51.552;9.874;2023-10-19T11:53:01;12.91;96.98
13796;SHT30;40911;51.552;9.874;2023-10-19T11:55:23;12.96;97.01
13796;SHT30;40911;51.552;9.874;2023-10-19T11:57:46;13.01;96.89
13796;SHT30;40911;51.552;9.874;2023-10-19T12:00:10;13.06;96.93
13796;SHT30;40911;51.552;9.874;2023-10-19T12:02:36;13.12;96.78
13796;SHT30;40911;51.552;9.874;2023-10-19T12:05:05;13.18;96.57
13796;SHT30;40911;51.552;9.874;2023-10-19T12:07:30;13.30;96.67
13796;SHT30;40911;51.552;9.874;2023-10-19T12:09:54;13.32;96.01
13796;SHT30;40911;51.552;9.874;2023-10-19T12:12:15;13.40;96.26
13796;SHT30;40911;51.552;9.874;2023-10-19T12:14:38;13.39;96.26
13796;SHT30;40911;51.552;9.874;2023-10-19T12:17:02;13.41;96.38
13796;SHT30;40911;51.552;9.874;2023-10-19T12:19:27;13.37;95.70
13796;SHT30;40911;51.552;9.874;2023-10-19T12:21:50;13.41;95.66
13796;SHT30;40911;51.552;9.874;2023-10-19T12:24:12;13.54;95.98
13796;SHT30;40911;51.552;9.874;2023-10-19T12:26:35;13.58;96.21
13796;SHT30;40911;51.552;9.874;2023-10-19T12:28:59;13.51;95.73
13796;SHT30;40911;51.552;9.874;2023-10-19T12:31:20;13.48;96.03
13796;SHT30;40911;51.552;9.874;2023-10-19T12:33:45;13.46;95.91
13796;SHT30;40911;51.552;9.874;2023-10-19T12:36:06;13.47;95.71
13796;SHT30;40911;51.552;9.874;2023-10-19T12:38:45;13.54;95.77
13796;SHT30;40911;51.552;9.874;2023-10-19T12:41:07;13.71;95.49
13796;SHT30;40911;51.552;9.874;2023-10-19T12:43:29;13.98;95.33
13796;SHT30;40911;51.552;9.874;2023-10-19T12:45:51;14.13;94.50
13796;SHT30;40911;51.552;9.874;2023-10-19T12:48:13;14.29;94.54
13796;SHT30;40911;51.552;9.874;2023-10-19T12:50:37;14.22;94.22
13796;SHT30;40911;51.552;9.874;2023-10-19T12:53:01;14.26;94.17
13796;SHT30;40911;51.552;9.874;2023-10-19T12:55:23;14.30;94.29
13796;SHT30;40911;51.552;9.874;2023-10-19T12:57:47;14.37;94.55
13796;SHT30;40911;51.552;9.874;2023-10-19T13:00:12;14.52;94.15
13796;SHT30;40911;51.552;9.874;2023-10-19T13:02:46;14.36;94.48
13796;SHT30;40911;51.552;9.874;2023-10-19T13:05:08;14.34;94.54
13796;SHT30;40911;51.552;9.874;2023-10-19T13:07:31;14.39;94.69
13796;SHT30;40911;51.552;9.874;2023-10-19T13:09:54;14.39;94.79
13796;SHT30;40911;51.552;9.874;2023-10-19T13:12:18;14.39;94.56
13796;SHT30;40911;51.552;9.874;2023-10-19T13:14:43;14.46;94.49
13796;SHT30;40911;51.552;9.874;2023-10-19T13:17:05;14.49;94.42
13796;SHT30;40911;51.552;9.874;2023-10-19T13:19:27;14.44;94.50
13796;SHT30;40911;51.552;9.874;2023-10-19T13:21:49;14.32;94.70
13796;SHT30;40911;51.552;9.874;2023-10-19T13:24:12;14.30;94.88
13796;SHT30;40911;51.552;9.874;2023-10-19T13:26:35;14.39;94.76
13796;SHT30;40911;51.552;9.874;2023-10-19T13:28:58;14.41;94.96
13796;SHT30;40911;51.552;9.874;2023-10-19T13:31:20;14.33;94.96
13796;SHT30;40911;51.552;9.874;2023-10-19T13:33:42;14.37;95.15
13796;SHT30;40911;51.552;9.874;2023-10-19T13:36:05;14.36;94.92
13796;SHT30;40911;51.552;9.874;2023-10-19T13:38:28;14.26;94.78
13796;SHT30;40911;51.552;9.874;2023-10-19T13:40:51;14.27;94.89
13796;SHT30;40911;51.552;9.874;2023-10-19T13:43:14;14.27;95.16
13796;SHT30;40911;51.552;9.874;2023-10-19T13:45:37;14.22;95.19
13796;SHT30;40911;51.552;9.874;2023-10-19T13:47:59;14.22;95.23
13796;SHT30;40911;51.552;9.874;2023-10-19T13:50:23;14.27;95.44
13796;SHT30;40911;51.552;9.874;2023-10-19T13:52:46;14.32;95.24
13796;SHT30;40911;51.552;9.874;2023-10-19T13:55:09;14.33;95.10
13796;SHT30;40911;51.552;9.874;2023-10-19T13:57:34;14.33;95.50
13796;SHT30;40911;51.552;9.874;2023-10-19T13:59:56;14.34;95.38
13796;SHT30;40911;51.552;9.874;2023-10-19T14:02:18;14.29;95.39
13796;SHT30;40911;51.552;9.874;2023-10-19T14:04:40;14.36;95.66
13796;SHT30;40911;51.552;9.874;2023-10-19T14:07:02;14.36;95.61
13796;SHT30;40911;51.552;9.874;2023-10-19T14:09:24;14.43;95.33
13796;SHT30;40911;51.552;9.874;2023-10-19T14:11:46;14.47;95.35
13796;SHT30;40911;51.552;9.874;2023-10-19T14:14:11;14.56;95.41
13796;SHT30;40911;51.552;9.874;2023-10-19T14:16:33;14.59;95.22
13796;SHT30;40911;51.552;9.874;2023-10-19T14:18:55;14.78;94.54
13796;SHT30;40911;51.552;9.874;2023-10-19T14:21:17;14.74;94.65
13796;SHT30;40911;51.552;9.874;2023-10-19T14:23:40;14.80;94.58
13796;SHT30;40911;51.552;9.874;2023-10-19T14:26:03;14.89;94.20
13796;SHT30;40911;51.552;9.874;2023-10-19T14:28:24;14.75;94.65
13796;SHT30;40911;51.552;9.874;2023-10-19T14:30:47;14.70;94.76
13796;SHT30;40911;51.552;9.874;2023-10-19T14:33:10;14.74;94.91
13796;SHT30;40911;51.552;9.874;2023-10-19T14:35:32;14.74;94.68
13796;SHT30;40911;51.552;9.874;2023-10-19T14:37:57;14.77;94.68
13796;SHT30;40911;51.552;9.874;2023-10-19T14:40:21;14.74;95.02
13796;SHT30;40911;51.552;9.874;2023-10-19T14:42:44;14.74;94.92
13796;SHT30;40911;51.552;9.874;2023-10-19T14:45:06;14.65;94.94
13796;SHT30;40911;51.552;9.874;2023-10-19T14:47:31;14.59;95.05
13796;SHT30;40911;51.552;9.874;2023-10-19T14:49:54;14.54;95.36
13796;SHT30;40911;51.552;9.874;2023-10-19T14:52:15;14.20;95.50
13796;SHT30;40911;51.552;9.874;2023-10-19T14:54:37;14.25;95.68
13796;SHT30;40911;51.552;9.874;2023-10-19T14:56:59;14.25;95.49
13796;SHT30;40911;51.552;9.874;2023-10-19T14:59:21;14.15;95.70
13796;SHT30;40911;51.552;9.874;2023-10-19T15:01:43;14.04;95.59
13796;SHT30;40911;51.552;9.874;2023-10-19T15:04:05;13.99;95.81
13796;SHT30;40911;51.552;9.874;2023-10-19T15:06:27;13.97;95.91
13796;SHT30;40911;51.552;9.874;2023-10-19T15:08:51;13.89;96.20
13796;SHT30;40911;51.552;9.874;2023-10-19T15:11:17;13.74;96.22
13796;SHT30;40911;51.552;9.874;2023-10-19T15:13:40;13.78;95.92
13796;SHT30;40911;51.552;9.874;2023-10-19T15:16:07;13.74;95.88